sensor_id;sensor_type;location;lat;lon;timestamp;P1;durP1;ratioP1;P2;durP2;ratioP2
14324;SDS011;7246;51.922;4.488;2022-10-16T00:01:18;1999.9;;;999.9;;
14324;SDS011;7246;51.922;4.488;2022-10-16T00:03:17;1999.9;;;999.9;;
14324;SDS011;7246;51.922;4.488;2022-10-16T00:05:17;1999.9;;;999.9;;
14324;SDS011;7246;51.922;4.488;2022-10-16T00:07:17;1999.9;;;999.9;;
14324;SDS011;7246;51.922;4.488;2022-10-16T00:09:17;1999.9;;;999.9;;
14324;SDS011;7246;51.922;4.488;2022-10-16T00:11:18;1999.9;;;999.9;;
14324;SDS011;7246;51.922;4.488;2022-10-16T00:13:17;1999.9;;;999.9;;
14324;SDS011;7246;51.922;4.488;2022-10-16T00:15:17;1999.9;;;999.9;;
14324;SDS011;7246;51.922;4.488;2022-10-16T00:17:17;1999.9;;;999.9;;
14324;SDS011;7246;51.922;4.488;2022-10-16T00:19:17;1999.9;;;999.9;;
14324;SDS011;7246;51.922;4.488;2022-10-16T00:21:18;1999.9;;;999.9;;
14324;SDS011;7246;51.922;4.488;2022-10-16T00:23:17;1999.9;;;999.9;;
14324;SDS011;7246;51.922;4.488;2022-10-16T00:25:18;1999.9;;;999.9;;
14324;SDS011;7246;51.922;4.488;2022-10-16T00:27:18;1999.9;;;999.9;;
14324;SDS011;7246;51.922;4.488;2022-10-16T00:29:17;1999.9;;;999.9;;
14324;SDS011;7246;51.922;4.488;2022-10-16T00:31:18;1999.9;;;999.9;;
14324;SDS011;7246;51.922;4.488;2022-10-16T00:33:18;1999.9;;;999.9;;
14324;SDS011;7246;51.922;4.488;2022-10-16T00:35:18;1999.9;;;999.9;;
14324;SDS011;7246;51.922;4.488;2022-10-16T00:37:18;1999.9;;;999.9;;
14324;SDS011;7246;51.922;4.488;2022-10-16T00:39:18;1999.9;;;999.9;;
14324;SDS011;7246;51.922;4.488;2022-10-16T00:41:18;1999.9;;;999.9;;
14324;SDS011;7246;51.922;4.488;2022-10-16T00:43:32;1999.9;;;999.9;;
14324;SDS011;7246;51.922;4.488;2022-10-16T00:45:18;1999.9;;;999.9;;
14324;SDS011;7246;51.922;4.488;2022-10-16T00:47:19;1999.9;;;999.9;;
14324;SDS011;7246;51.922;4.488;2022-10-16T00:49:18;1999.9;;;999.9;;
14324;SDS011;7246;51.922;4.488;2022-10-16T00:51:18;1999.9;;;999.9;;
14324;SDS011;7246;51.922;4.488;2022-10-16T00:53:18;1999.9;;;999.9;;
14324;SDS011;7246;51.922;4.488;2022-10-16T01:01:18;1999.9;;;999.9;;
14324;SDS011;7246;51.922;4.488;2022-10-16T01:03:22;1999.9;;;999.9;;
14324;SDS011;7246;51.922;4.488;2022-10-16T01:05:18;1999.9;;;999.9;;
14324;SDS011;7246;51.922;4.488;2022-10-16T01:07:22;1999.9;;;999.9;;
14324;SDS011;7246;51.922;4.488;2022-10-16T01:09:20;1999.9;;;999.9;;
14324;SDS011;7246;51.922;4.488;2022-10-16T01:11:20;1999.9;;;999.9;;
14324;SDS011;7246;51.922;4.488;2022-10-16T01:13:20;1999.9;;;999.9;;
14324;SDS011;7246;51.922;4.488;2022-10-16T01:15:20;1999.9;;;999.9;;
14324;SDS011;7246;51.922;4.488;2022-10-16T01:17:19;1999.9;;;999.9;;
14324;SDS011;7246;51.922;4.488;2022-10-16T01:19:19;1999.9;;;999.9;;
14324;SDS011;7246;51.922;4.488;2022-10-16T01:21:19;1999.9;;;999.9;;
14324;SDS011;7246;51.922;4.488;2022-10-16T01:23:21;1999.9;;;999.9;;
14324;SDS011;7246;51.922;4.488;2022-10-16T01:25:19;1999.9;;;999.9;;
14324;SDS011;7246;51.922;4.488;2022-10-16T01:27:18;1999.9;;;999.9;;
14324;SDS011;7246;51.922;4.488;2022-10-16T01:29:24;1999.9;;;999.9;;
14324;SDS011;7246;51.922;4.488;2022-10-16T01:31:19;1999.9;;;999.9;;
14324;SDS011;7246;51.922;4.488;2022-10-16T01:33:19;1999.9;;;999.9;;
14324;SDS011;7246;51.922;4.488;2022-10-16T01:35:20;1999.9;;;999.9;;
14324;SDS011;7246;51.922;4.488;2022-10-16T01:37:21;1999.9;;;999.9;;
14324;SDS011;7246;51.922;4.488;2022-10-16T01:39:19;1999.9;;;999.9;;
14324;SDS011;7246;51.922;4.488;2022-10-16T01:41:19;1999.9;;;999.9;;
14324;SDS011;7246;51.922;4.488;2022-10-16T01:43:19;1999.9;;;999.9;;
14324;SDS011;7246;51.922;4.488;2022-10-16T01:45:18;1999.9;;;999.9;;
14324;SDS011;7246;51.922;4.488;2022-10-16T01:47:18;1999.9;;;999.9;;
14324;SDS011;7246;51.922;4.488;2022-10-16T01:49:19;1999.9;;;999.9;;
14324;SDS011;7246;51.922;4.488;2022-10-16T01:51:18;1999.9;;;999.9;;
14324;SDS011;7246;51.922;4.488;2022-10-16T01:53:18;1999.9;;;999.9;;
14324;SDS011;7246;51.922;4.488;2022-10-16T01:55:20;1999.9;;;999.9;;
14324;SDS011;7246;51.922;4.488;2022-10-16T01:57:18;1999.9;;;999.9;;
14324;SDS011;7246;51.922;4.488;2022-10-16T01:59:19;1999.9;;;999.9;;
14324;SDS011;7246;51.922;4.488;2022-10-16T02:01:19;1999.9;;;999.9;;
14324;SDS011;7246;51.922;4.488;2022-10-16T02:03:19;1999.9;;;999.9;;
14324;SDS011;7246;51.922;4.488;2022-10-16T02:05:20;1999.9;;;999.9;;
14324;SDS011;7246;51.922;4.488;2022-10-16T02:07:19;1999.9;;;999.9;;
14324;SDS011;7246;51.922;4.488;2022-10-16T02:09:19;1999.9;;;999.9;;
14324;SDS011;7246;51.922;4.488;2022-10-16T02:11:19;1999.9;;;999.9;;
14324;SDS011;7246;51.922;4.488;2022-10-16T02:13:19;1999.9;;;999.9;;
14324;SDS011;7246;51.922;4.488;2022-10-16T02:15:19;1999.9;;;999.9;;
14324;SDS011;7246;51.922;4.488;2022-10-16T02:17:19;1999.9;;;999.9;;
14324;SDS011;7246;51.922;4.488;2022-10-16T02:19:19;1999.9;;;999.9;;
14324;SDS011;7246;51.922;4.488;2022-10-16T02:21:21;1999.9;;;999.9;;
14324;SDS011;7246;51.922;4.488;2022-10-16T02:23:19;1999.9;;;999.9;;
14324;SDS011;7246;51.922;4.488;2022-10-16T02:25:19;1999.9;;;999.9;;
14324;SDS011;7246;51.922;4.488;2022-10-16T02:27:19;1999.9;;;999.9;;
14324;SDS011;7246;51.922;4.488;2022-10-16T02:29:20;1999.9;;;999.9;;
14324;SDS011;7246;51.922;4.488;2022-10-16T02:31:22;1999.9;;;999.9;;
14324;SDS011;7246;51.922;4.488;2022-10-16T02:33:19;1999.9;;;999.9;;
14324;SDS011;7246;51.922;4.488;2022-10-16T02:35:20;1999.9;;;999.9;;
14324;SDS011;7246;51.922;4.488;2022-10-16T02:37:19;1999.9;;;999.9;;
14324;SDS011;7246;51.922;4.488;2022-10-16T02:39:19;1999.9;;;999.9;;
14324;SDS011;7246;51.922;4.488;2022-10-16T02:41:20;1999.9;;;999.9;;
14324;SDS011;7246;51.922;4.488;2022-10-16T02:43:19;1999.9;;;999.9;;
14324;SDS011;7246;51.922;4.488;2022-10-16T02:45:19;1999.9;;;999.9;;
14324;SDS011;7246;51.922;4.488;2022-10-16T02:47:19;1999.9;;;999.9;;
14324;SDS011;7246;51.922;4.488;2022-10-16T02:49:19;1999.9;;;999.9;;
14324;SDS011;7246;51.922;4.488;2022-10-16T02:51:19;1999.9;;;999.9;;
14324;SDS011;7246;51.922;4.488;2022-10-16T02:53:19;1999.9;;;999.9;;
14324;SDS011;7246;51.922;4.488;2022-10-16T02:55:19;1999.9;;;999.9;;
14324;SDS011;7246;51.922;4.488;2022-10-16T02:57:19;1999.9;;;999.9;;
14324;SDS011;7246;51.922;4.488;2022-10-16T02:59:19;1999.9;;;999.9;;
14324;SDS011;7246;51.922;4.488;2022-10-16T03:01:19;1999.9;;;999.9;;
14324;SDS011;7246;51.922;4.488;2022-10-16T03:03:19;1999.9;;;999.9;;
14324;SDS011;7246;51.922;4.488;2022-10-16T03:05:19;1999.9;;;999.9;;
14324;SDS011;7246;51.922;4.488;2022-10-16T03:07:19;1999.9;;;999.9;;
14324;SDS011;7246;51.922;4.488;2022-10-16T03:09:19;1999.9;;;999.9;;
14324;SDS011;7246;51.922;4.488;2022-10-16T03:11:19;1999.9;;;999.9;;
14324;SDS011;7246;51.922;4.488;2022-10-16T03:13:19;1999.9;;;999.9;;
14324;SDS011;7246;51.922;4.488;2022-10-16T03:15:19;1999.9;;;999.9;;
14324;SDS011;7246;51.922;4.488;2022-10-16T03:17:19;1999.9;;;999.9;;
14324;SDS011;7246;51.922;4.488;2022-10-16T03:19:20;1999.9;;;999.9;;
14324;SDS011;7246;51.922;4.488;2022-10-16T03:21:19;1999.9;;;999.9;;
14324;SDS011;7246;51.922;4.488;2022-10-16T03:23:19;1999.9;;;999.9;;
14324;SDS011;7246;51.922;4.488;2022-10-16T03:25:19;1999.9;;;999.9;;
14324;SDS011;7246;51.922;4.488;2022-10-16T03:27:19;1999.9;;;999.9;;
14324;SDS011;7246;51.922;4.488;2022-10-16T03:29:19;1999.9;;;999.9;;
14324;SDS011;7246;51.922;4.488;2022-10-16T03:31:19;1999.9;;;999.9;;
14324;SDS011;7246;51.922;4.488;2022-10-16T03:33:19;1999.9;;;999.9;;
14324;SDS011;7246;51.922;4.488;2022-10-16T03:35:20;1999.9;;;999.9;;
14324;SDS011;7246;51.922;4.488;2022-10-16T03:37:20;1999.9;;;999.9;;
14324;SDS011;7246;51.922;4.488;2022-10-16T03:39:20;1999.9;;;999.9;;
14324;SDS011;7246;51.922;4.488;2022-10-16T03:41:20;1999.9;;;999.9;;
14324;SDS011;7246;51.922;4.488;2022-10-16T03:43:20;1999.9;;;999.9;;
14324;SDS011;7246;51.922;4.488;2022-10-16T03:45:20;1999.9;;;999.9;;
14324;SDS011;7246;51.922;4.488;2022-10-16T03:47:20;1999.9;;;999.9;;
14324;SDS011;7246;51.922;4.488;2022-10-16T03:49:20;1999.9;;;999.9;;
14324;SDS011;7246;51.922;4.488;2022-10-16T03:51:20;1999.9;;;999.9;;
14324;SDS011;7246;51.922;4.488;2022-10-16T03:53:20;1999.9;;;999.9;;
14324;SDS011;7246;51.922;4.488;2022-10-16T03:55:20;1999.9;;;999.9;;
14324;SDS011;7246;51.922;4.488;2022-10-16T03:57:20;1999.9;;;999.9;;
14324;SDS011;7246;51.922;4.488;2022-10-16T03:59:20;1999.9;;;999.9;;
14324;SDS011;7246;51.922;4.488;2022-10-16T04:01:20;1999.9;;;999.9;;
14324;SDS011;7246;51.922;4.488;2022-10-16T04:03:20;1999.9;;;999.9;;
14324;SDS011;7246;51.922;4.488;2022-10-16T04:05:20;1999.9;;;999.9;;
14324;SDS011;7246;51.922;4.488;2022-10-16T04:07:20;1999.9;;;999.9;;
14324;SDS011;7246;51.922;4.488;2022-10-16T04:09:20;1999.9;;;999.9;;
14324;SDS011;7246;51.922;4.488;2022-10-16T04:11:20;1999.9;;;999.9;;
14324;SDS011;7246;51.922;4.488;2022-10-16T04:13:20;1999.9;;;999.9;;
14324;SDS011;7246;51.922;4.488;2022-10-16T04:15:20;1999.9;;;999.9;;
14324;SDS011;7246;51.922;4.488;2022-10-16T04:17:20;1999.9;;;999.9;;
14324;SDS011;7246;51.922;4.488;2022-10-16T04:19:20;1999.9;;;999.9;;
14324;SDS011;7246;51.922;4.488;2022-10-16T04:21:20;1999.9;;;999.9;;
14324;SDS011;7246;51.922;4.488;2022-10-16T04:23:20;1999.9;;;999.9;;
14324;SDS011;7246;51.922;4.488;2022-10-16T04:25:20;1999.9;;;999.9;;
14324;SDS011;7246;51.922;4.488;2022-10-16T04:27:20;1999.9;;;999.9;;
14324;SDS011;7246;51.922;4.488;2022-10-16T04:29:20;1999.9;;;999.9;;
14324;SDS011;7246;51.922;4.488;2022-10-16T04:31:20;1999.9;;;999.9;;
14324;SDS011;7246;51.922;4.488;2022-10-16T04:33:20;1999.9;;;999.9;;
14324;SDS011;7246;51.922;4.488;2022-10-16T04:35:20;1999.9;;;999.9;;
14324;SDS011;7246;51.922;4.488;2022-10-16T04:37:23;1999.9;;;999.9;;
14324;SDS011;7246;51.922;4.488;2022-10-16T04:39:20;1999.9;;;999.9;;
14324;SDS011;7246;51.922;4.488;2022-10-16T04:41:20;1999.9;;;999.9;;
14324;SDS011;7246;51.922;4.488;2022-10-16T04:43:21;1999.9;;;999.9;;
14324;SDS011;7246;51.922;4.488;2022-10-16T04:45:20;1999.9;;;999.9;;
14324;SDS011;7246;51.922;4.488;2022-10-16T04:47:20;1999.9;;;999.9;;
14324;SDS011;7246;51.922;4.488;2022-10-16T04:49:20;1999.9;;;999.9;;
14324;SDS011;7246;51.922;4.488;2022-10-16T04:51:20;1999.9;;;999.9;;
14324;SDS011;7246;51.922;4.488;2022-10-16T04:53:20;1999.9;;;999.9;;
14324;SDS011;7246;51.922;4.488;2022-10-16T04:55:20;1999.9;;;999.9;;
14324;SDS011;7246;51.922;4.488;2022-10-16T04:57:20;1999.9;;;999.9;;
14324;SDS011;7246;51.922;4.488;2022-10-16T04:59:20;1999.9;;;999.9;;
14324;SDS011;7246;51.922;4.488;2022-10-16T05:01:20;1999.9;;;999.9;;
14324;SDS011;7246;51.922;4.488;2022-10-16T05:03:21;1999.9;;;999.9;;
14324;SDS011;7246;51.922;4.488;2022-10-16T05:05:20;1999.9;;;999.9;;
14324;SDS011;7246;51.922;4.488;2022-10-16T05:07:20;1999.9;;;999.9;;
14324;SDS011;7246;51.922;4.488;2022-10-16T05:09:21;1999.9;;;999.9;;
14324;SDS011;7246;51.922;4.488;2022-10-16T05:11:21;1999.9;;;999.9;;
14324;SDS011;7246;51.922;4.488;2022-10-16T05:13:21;1999.9;;;999.9;;
14324;SDS011;7246;51.922;4.488;2022-10-16T05:15:21;1999.9;;;999.9;;
14324;SDS011;7246;51.922;4.488;2022-10-16T05:17:21;1999.9;;;999.9;;
14324;SDS011;7246;51.922;4.488;2022-10-16T05:19:21;1999.9;;;999.9;;
14324;SDS011;7246;51.922;4.488;2022-10-16T05:21:21;1999.9;;;999.9;;
14324;SDS011;7246;51.922;4.488;2022-10-16T05:23:21;1999.9;;;999.9;;
14324;SDS011;7246;51.922;4.488;2022-10-16T05:25:21;1999.9;;;999.9;;
14324;SDS011;7246;51.922;4.488;2022-10-16T05:27:21;1999.9;;;999.9;;
14324;SDS011;7246;51.922;4.488;2022-10-16T05:29:21;1999.9;;;999.9;;
14324;SDS011;7246;51.922;4.488;2022-10-16T05:31:21;1999.9;;;999.9;;
14324;SDS011;7246;51.922;4.488;2022-10-16T05:33:21;1999.9;;;999.9;;
14324;SDS011;7246;51.922;4.488;2022-10-16T05:35:21;1999.9;;;999.9;;
14324;SDS011;7246;51.922;4.488;2022-10-16T05:37:21;1999.9;;;999.9;;
14324;SDS011;7246;51.922;4.488;2022-10-16T05:39:21;1999.9;;;999.9;;
14324;SDS011;7246;51.922;4.488;2022-10-16T05:41:21;1999.9;;;999.9;;
14324;SDS011;7246;51.922;4.488;2022-10-16T05:43:21;1999.9;;;999.9;;
14324;SDS011;7246;51.922;4.488;2022-10-16T05:45:21;1999.9;;;999.9;;
14324;SDS011;7246;51.922;4.488;2022-10-16T05:47:21;1999.9;;;999.9;;
14324;SDS011;7246;51.922;4.488;2022-10-16T05:49:21;1999.9;;;999.9;;
14324;SDS011;7246;51.922;4.488;2022-10-16T05:51:21;1999.9;;;999.9;;
14324;SDS011;7246;51.922;4.488;2022-10-16T05:53:21;1999.9;;;999.9;;
14324;SDS011;7246;51.922;4.488;2022-10-16T05:55:21;1999.9;;;999.9;;
14324;SDS011;7246;51.922;4.488;2022-10-16T05:57:21;1999.9;;;999.9;;
14324;SDS011;7246;51.922;4.488;2022-10-16T05:59:21;1999.9;;;999.9;;
14324;SDS011;7246;51.922;4.488;2022-10-16T06:01:21;1999.9;;;999.9;;
14324;SDS011;7246;51.922;4.488;2022-10-16T06:03:21;1999.9;;;999.9;;
14324;SDS011;7246;51.922;4.488;2022-10-16T06:05:21;1999.9;;;999.9;;
14324;SDS011;7246;51.922;4.488;2022-10-16T06:07:21;1999.9;;;999.9;;
14324;SDS011;7246;51.922;4.488;2022-10-16T06:09:21;1999.9;;;999.9;;
14324;SDS011;7246;51.922;4.488;2022-10-16T06:11:22;1999.9;;;999.9;;
14324;SDS011;7246;51.922;4.488;2022-10-16T06:13:21;1999.9;;;999.9;;
14324;SDS011;7246;51.922;4.488;2022-10-16T06:15:21;1999.9;;;999.9;;
14324;SDS011;7246;51.922;4.488;2022-10-16T06:17:21;1999.9;;;999.9;;
14324;SDS011;7246;51.922;4.488;2022-10-16T06:19:21;1999.9;;;999.9;;
14324;SDS011;7246;51.922;4.488;2022-10-16T06:21:22;1999.9;;;999.9;;
14324;SDS011;7246;51.922;4.488;2022-10-16T06:23:22;1999.9;;;999.9;;
14324;SDS011;7246;51.922;4.488;2022-10-16T06:25:21;1999.9;;;999.9;;
14324;SDS011;7246;51.922;4.488;2022-10-16T06:27:21;1999.9;;;999.9;;
14324;SDS011;7246;51.922;4.488;2022-10-16T06:29:21;1999.9;;;999.9;;
14324;SDS011;7246;51.922;4.488;2022-10-16T06:31:21;1999.9;;;999.9;;
14324;SDS011;7246;51.922;4.488;2022-10-16T06:33:21;1999.9;;;999.9;;
14324;SDS011;7246;51.922;4.488;2022-10-16T06:35:21;1999.9;;;999.9;;
14324;SDS011;7246;51.922;4.488;2022-10-16T06:37:22;1999.9;;;999.9;;
14324;SDS011;7246;51.922;4.488;2022-10-16T06:39:21;1999.9;;;999.9;;
14324;SDS011;7246;51.922;4.488;2022-10-16T06:41:22;1999.9;;;999.9;;
14324;SDS011;7246;51.922;4.488;2022-10-16T06:43:22;1999.9;;;999.9;;
14324;SDS011;7246;51.922;4.488;2022-10-16T06:45:22;1999.9;;;999.9;;
14324;SDS011;7246;51.922;4.488;2022-10-16T06:47:22;1999.9;;;999.9;;
14324;SDS011;7246;51.922;4.488;2022-10-16T06:49:22;1999.9;;;999.9;;
14324;SDS011;7246;51.922;4.488;2022-10-16T06:51:22;1999.9;;;999.9;;
14324;SDS011;7246;51.922;4.488;2022-10-16T06:53:22;1999.9;;;999.9;;
14324;SDS011;7246;51.922;4.488;2022-10-16T06:55:22;1999.9;;;999.9;;
14324;SDS011;7246;51.922;4.488;2022-10-16T06:57:22;1999.9;;;999.9;;
14324;SDS011;7246;51.922;4.488;2022-10-16T06:59:22;1999.9;;;999.9;;
14324;SDS011;7246;51.922;4.488;2022-10-16T07:01:22;1999.9;;;999.9;;
14324;SDS011;7246;51.922;4.488;2022-10-16T07:03:22;1999.9;;;999.9;;
14324;SDS011;7246;51.922;4.488;2022-10-16T07:05:22;1999.9;;;999.9;;
14324;SDS011;7246;51.922;4.488;2022-10-16T07:07:22;1999.9;;;999.9;;
14324;SDS011;7246;51.922;4.488;2022-10-16T07:09:22;1999.9;;;999.9;;
14324;SDS011;7246;51.922;4.488;2022-10-16T07:11:23;1999.9;;;999.9;;
14324;SDS011;7246;51.922;4.488;2022-10-16T07:13:22;1999.9;;;999.9;;
14324;SDS011;7246;51.922;4.488;2022-10-16T07:15:22;1999.9;;;999.9;;
14324;SDS011;7246;51.922;4.488;2022-10-16T07:17:22;1999.9;;;999.9;;
14324;SDS011;7246;51.922;4.488;2022-10-16T07:19:22;1999.9;;;999.9;;
14324;SDS011;7246;51.922;4.488;2022-10-16T07:21:22;1999.9;;;999.9;;
14324;SDS011;7246;51.922;4.488;2022-10-16T07:23:22;1999.9;;;999.9;;
14324;SDS011;7246;51.922;4.488;2022-10-16T07:25:22;1999.9;;;999.9;;
14324;SDS011;7246;51.922;4.488;2022-10-16T07:27:22;1999.9;;;999.9;;
14324;SDS011;7246;51.922;4.488;2022-10-16T07:29:22;1999.9;;;999.9;;
14324;SDS011;7246;51.922;4.488;2022-10-16T07:31:22;1999.9;;;999.9;;
14324;SDS011;7246;51.922;4.488;2022-10-16T07:33:22;1999.9;;;999.9;;
14324;SDS011;7246;51.922;4.488;2022-10-16T07:35:22;1999.9;;;999.9;;
14324;SDS011;7246;51.922;4.488;2022-10-16T07:37:22;1999.9;;;999.9;;
14324;SDS011;7246;51.922;4.488;2022-10-16T07:39:22;1999.9;;;999.9;;
14324;SDS011;7246;51.922;4.488;2022-10-16T07:41:23;1999.9;;;999.9;;
14324;SDS011;7246;51.922;4.488;2022-10-16T07:43:22;1999.9;;;999.9;;
14324;SDS011;7246;51.922;4.488;2022-10-16T07:45:22;1999.9;;;999.9;;
14324;SDS011;7246;51.922;4.488;2022-10-16T07:47:22;1999.9;;;999.9;;
14324;SDS011;7246;51.922;4.488;2022-10-16T07:49:22;1999.9;;;999.9;;
14324;SDS011;7246;51.922;4.488;2022-10-16T07:51:23;1999.9;;;999.9;;
14324;SDS011;7246;51.922;4.488;2022-10-16T07:53:22;1999.9;;;999.9;;
14324;SDS011;7246;51.922;4.488;2022-10-16T07:55:22;1999.9;;;999.9;;
14324;SDS011;7246;51.922;4.488;2022-10-16T07:57:23;1999.9;;;999.9;;
14324;SDS011;7246;51.922;4.488;2022-10-16T07:59:23;1999.9;;;999.9;;
14324;SDS011;7246;51.922;4.488;2022-10-16T08:01:22;1999.9;;;999.9;;
14324;SDS011;7246;51.922;4.488;2022-10-16T08:03:22;1999.9;;;999.9;;
14324;SDS011;7246;51.922;4.488;2022-10-16T08:05:22;1999.9;;;999.9;;
14324;SDS011;7246;51.922;4.488;2022-10-16T08:07:22;1999.9;;;999.9;;
14324;SDS011;7246;51.922;4.488;2022-10-16T08:09:22;1999.9;;;999.9;;
14324;SDS011;7246;51.922;4.488;2022-10-16T08:11:23;1999.9;;;999.9;;
14324;SDS011;7246;51.922;4.488;2022-10-16T08:13:23;1999.9;;;999.9;;
14324;SDS011;7246;51.922;4.488;2022-10-16T08:15:23;1999.9;;;999.9;;
14324;SDS011;7246;51.922;4.488;2022-10-16T08:17:23;1999.9;;;999.9;;
14324;SDS011;7246;51.922;4.488;2022-10-16T08:19:23;1999.9;;;999.9;;
14324;SDS011;7246;51.922;4.488;2022-10-16T08:21:23;1999.9;;;999.9;;
14324;SDS011;7246;51.922;4.488;2022-10-16T08:23:23;1999.9;;;999.9;;
14324;SDS011;7246;51.922;4.488;2022-10-16T08:25:23;1999.9;;;999.9;;
14324;SDS011;7246;51.922;4.488;2022-10-16T08:27:23;1999.9;;;999.9;;
14324;SDS011;7246;51.922;4.488;2022-10-16T08:29:23;1999.9;;;999.9;;
14324;SDS011;7246;51.922;4.488;2022-10-16T08:31:23;1999.9;;;999.9;;
14324;SDS011;7246;51.922;4.488;2022-10-16T08:33:23;1999.9;;;999.9;;
14324;SDS011;7246;51.922;4.488;2022-10-16T08:35:23;1999.9;;;999.9;;
14324;SDS011;7246;51.922;4.488;2022-10-16T08:37:23;1999.9;;;999.9;;
14324;SDS011;7246;51.922;4.488;2022-10-16T08:39:23;1999.9;;;999.9;;
14324;SDS011;7246;51.922;4.488;2022-10-16T08:41:33;1999.9;;;999.9;;
14324;SDS011;7246;51.922;4.488;2022-10-16T08:43:27;1999.9;;;999.9;;
14324;SDS011;7246;51.922;4.488;2022-10-16T08:45:26;1999.9;;;999.9;;
14324;SDS011;7246;51.922;4.488;2022-10-16T08:47:24;1999.9;;;999.9;;
14324;SDS011;7246;51.922;4.488;2022-10-16T08:49:23;1999.9;;;999.9;;
14324;SDS011;7246;51.922;4.488;2022-10-16T08:51:24;1999.9;;;999.9;;
14324;SDS011;7246;51.922;4.488;2022-10-16T08:53:24;1999.9;;;999.9;;
14324;SDS011;7246;51.922;4.488;2022-10-16T08:55:28;1999.9;;;999.9;;
14324;SDS011;7246;51.922;4.488;2022-10-16T08:57:24;1999.9;;;999.9;;
14324;SDS011;7246;51.922;4.488;2022-10-16T08:59:23;1999.9;;;999.9;;
14324;SDS011;7246;51.922;4.488;2022-10-16T09:01:24;1999.9;;;999.9;;
14324;SDS011;7246;51.922;4.488;2022-10-16T09:03:28;1999.9;;;999.9;;
14324;SDS011;7246;51.922;4.488;2022-10-16T09:05:26;1999.9;;;999.9;;
14324;SDS011;7246;51.922;4.488;2022-10-16T09:07:25;1999.9;;;999.9;;
14324;SDS011;7246;51.922;4.488;2022-10-16T09:09:29;1999.9;;;999.9;;
14324;SDS011;7246;51.922;4.488;2022-10-16T09:11:25;1999.9;;;999.9;;
14324;SDS011;7246;51.922;4.488;2022-10-16T09:13:24;1999.9;;;999.9;;
14324;SDS011;7246;51.922;4.488;2022-10-16T09:15:25;1999.9;;;999.9;;
14324;SDS011;7246;51.922;4.488;2022-10-16T09:17:28;1999.9;;;999.9;;
14324;SDS011;7246;51.922;4.488;2022-10-16T09:19:24;1999.9;;;999.9;;
14324;SDS011;7246;51.922;4.488;2022-10-16T09:21:24;1999.9;;;999.9;;
14324;SDS011;7246;51.922;4.488;2022-10-16T09:23:25;1999.9;;;999.9;;
14324;SDS011;7246;51.922;4.488;2022-10-16T09:25:23;1999.9;;;999.9;;
14324;SDS011;7246;51.922;4.488;2022-10-16T09:27:23;1999.9;;;999.9;;
14324;SDS011;7246;51.922;4.488;2022-10-16T09:29:23;1999.9;;;999.9;;
14324;SDS011;7246;51.922;4.488;2022-10-16T09:31:23;1999.9;;;999.9;;
14324;SDS011;7246;51.922;4.488;2022-10-16T09:33:25;1999.9;;;999.9;;
14324;SDS011;7246;51.922;4.488;2022-10-16T09:35:25;1999.9;;;999.9;;
14324;SDS011;7246;51.922;4.488;2022-10-16T09:37:23;1999.9;;;999.9;;
14324;SDS011;7246;51.922;4.488;2022-10-16T09:39:24;1999.9;;;999.9;;
14324;SDS011;7246;51.922;4.488;2022-10-16T09:41:24;1999.9;;;999.9;;
14324;SDS011;7246;51.922;4.488;2022-10-16T09:43:24;1999.9;;;999.9;;
14324;SDS011;7246;51.922;4.488;2022-10-16T09:45:24;1999.9;;;999.9;;
14324;SDS011;7246;51.922;4.488;2022-10-16T09:47:25;1999.9;;;999.9;;
14324;SDS011;7246;51.922;4.488;2022-10-16T09:49:24;1999.9;;;999.9;;
14324;SDS011;7246;51.922;4.488;2022-10-16T09:51:24;1974.2;;;999.9;;
14324;SDS011;7246;51.922;4.488;2022-10-16T09:53:24;1791.8;;;999.9;;
14324;SDS011;7246;51.922;4.488;2022-10-16T09:55:24;1692.7;;;999.9;;
14324;SDS011;7246;51.922;4.488;2022-10-16T09:57:24;1536.6;;;999.9;;
14324;SDS011;7246;51.922;4.488;2022-10-16T09:59:24;1420.1;;;999.9;;
14324;SDS011;7246;51.922;4.488;2022-10-16T10:01:26;1444.3;;;999.9;;
14324;SDS011;7246;51.922;4.488;2022-10-16T10:03:30;1433.2;;;999.9;;
14324;SDS011;7246;51.922;4.488;2022-10-16T10:05:25;1427.0;;;999.9;;
14324;SDS011;7246;51.922;4.488;2022-10-16T10:07:25;1451.9;;;999.9;;
14324;SDS011;7246;51.922;4.488;2022-10-16T10:09:24;1419.6;;;999.9;;
14324;SDS011;7246;51.922;4.488;2022-10-16T10:13:24;1455.3;;;999.9;;
14324;SDS011;7246;51.922;4.488;2022-10-16T10:15:24;1343.4;;;999.9;;
14324;SDS011;7246;51.922;4.488;2022-10-16T10:17:25;1323.3;;;999.9;;
14324;SDS011;7246;51.922;4.488;2022-10-16T10:19:24;1328.2;;;999.9;;
14324;SDS011;7246;51.922;4.488;2022-10-16T10:21:24;1372.8;;;999.9;;
14324;SDS011;7246;51.922;4.488;2022-10-16T10:23:25;1261.1;;;999.9;;
14324;SDS011;7246;51.922;4.488;2022-10-16T10:25:28;1207.0;;;999.9;;
14324;SDS011;7246;51.922;4.488;2022-10-16T10:27:26;1192.9;;;999.9;;
14324;SDS011;7246;51.922;4.488;2022-10-16T10:29:30;1155.6;;;999.9;;
14324;SDS011;7246;51.922;4.488;2022-10-16T10:31:25;1174.2;;;999.9;;
14324;SDS011;7246;51.922;4.488;2022-10-16T10:33:25;1174.9;;;999.9;;
14324;SDS011;7246;51.922;4.488;2022-10-16T10:35:25;1178.0;;;999.9;;
14324;SDS011;7246;51.922;4.488;2022-10-16T10:37:29;1177.3;;;999.9;;
14324;SDS011;7246;51.922;4.488;2022-10-16T10:39:25;1177.6;;;999.9;;
14324;SDS011;7246;51.922;4.488;2022-10-16T10:41:27;1135.1;;;999.9;;
14324;SDS011;7246;51.922;4.488;2022-10-16T10:43:28;1124.2;;;999.9;;
14324;SDS011;7246;51.922;4.488;2022-10-16T10:45:26;1118.8;;;999.9;;
14324;SDS011;7246;51.922;4.488;2022-10-16T10:47:27;1147.8;;;999.9;;
14324;SDS011;7246;51.922;4.488;2022-10-16T10:49:29;1201.5;;;999.9;;
14324;SDS011;7246;51.922;4.488;2022-10-16T10:51:26;1172.8;;;999.9;;
14324;SDS011;7246;51.922;4.488;2022-10-16T10:53:28;1152.1;;;999.9;;
14324;SDS011;7246;51.922;4.488;2022-10-16T10:55:26;1127.0;;;999.9;;
14324;SDS011;7246;51.922;4.488;2022-10-16T10:57:25;1088.9;;;999.9;;
14324;SDS011;7246;51.922;4.488;2022-10-16T11:01:26;1025.7;;;969.4;;
14324;SDS011;7246;51.922;4.488;2022-10-16T11:03:28;997.7;;;950.1;;
14324;SDS011;7246;51.922;4.488;2022-10-16T11:05:31;986.6;;;939.6;;
14324;SDS011;7246;51.922;4.488;2022-10-16T11:07:25;1007.3;;;959.2;;
14324;SDS011;7246;51.922;4.488;2022-10-16T11:09:25;1019.7;;;971.1;;
14324;SDS011;7246;51.922;4.488;2022-10-16T11:11:25;984.0;;;937.1;;
14324;SDS011;7246;51.922;4.488;2022-10-16T11:13:28;985.8;;;938.8;;
14324;SDS011;7246;51.922;4.488;2022-10-16T11:15:25;981.7;;;934.9;;
14324;SDS011;7246;51.922;4.488;2022-10-16T11:17:25;983.3;;;936.4;;
14324;SDS011;7246;51.922;4.488;2022-10-16T11:19:28;971.0;;;924.7;;
14324;SDS011;7246;51.922;4.488;2022-10-16T11:21:25;975.2;;;928.7;;
14324;SDS011;7246;51.922;4.488;2022-10-16T11:23:26;966.9;;;920.8;;
14324;SDS011;7246;51.922;4.488;2022-10-16T11:25:26;1046.4;;;989.3;;
14324;SDS011;7246;51.922;4.488;2022-10-16T11:27:27;1034.9;;;985.5;;
14324;SDS011;7246;51.922;4.488;2022-10-16T11:29:26;1060.1;;;997.9;;
14324;SDS011;7246;51.922;4.488;2022-10-16T11:31:28;1042.2;;;991.5;;
14324;SDS011;7246;51.922;4.488;2022-10-16T11:33:27;1037.5;;;986.4;;
14324;SDS011;7246;51.922;4.488;2022-10-16T11:35:28;1057.3;;;992.9;;
14324;SDS011;7246;51.922;4.488;2022-10-16T11:37:26;1013.1;;;964.6;;
14324;SDS011;7246;51.922;4.488;2022-10-16T11:39:25;949.1;;;903.9;;
14324;SDS011;7246;51.922;4.488;2022-10-16T11:41:27;965.9;;;919.9;;
14324;SDS011;7246;51.922;4.488;2022-10-16T11:43:26;963.3;;;917.4;;
14324;SDS011;7246;51.922;4.488;2022-10-16T11:45:27;956.8;;;911.2;;
14324;SDS011;7246;51.922;4.488;2022-10-16T11:47:27;936.3;;;891.6;;
14324;SDS011;7246;51.922;4.488;2022-10-16T11:49:25;929.2;;;884.9;;
14324;SDS011;7246;51.922;4.488;2022-10-16T11:51:27;954.2;;;908.7;;